createdAt,value
2023-03-22T00:01:13.990Z,40.27
2023-03-22T00:03:41.036Z,44.43
2023-03-22T00:06:08.405Z,42.97
2023-03-22T00:08:35.592Z,42.07
2023-03-22T00:11:03.305Z,39.93
2023-03-22T00:13:31.120Z,38.70
2023-03-22T00:15:59.829Z,37.63
2023-03-22T00:18:26.743Z,39.80
2023-03-22T00:20:56.996Z,38.00
2023-03-22T00:23:25.765Z,37.43
2023-03-22T00:25:52.740Z,34.40
2023-03-22T00:28:19.954Z,34.87
2023-03-22T00:30:59.248Z,38.67
2023-03-22T00:33:27.157Z,37.53
2023-03-22T00:36:14.199Z,34.97
2023-03-22T00:38:43.868Z,39.27
2023-03-22T00:41:14.230Z,40.53
2023-03-22T00:43:41.149Z,40.00
2023-03-22T00:46:08.255Z,41.47
2023-03-22T00:48:35.318Z,39.03
2023-03-22T00:51:02.832Z,38.40
2023-03-22T00:53:29.697Z,35.70
2023-03-22T00:55:59.718Z,41.17
2023-03-22T00:58:26.508Z,38.47
2023-03-22T01:00:54.705Z,36.63
2023-03-22T01:03:22.169Z,35.90
2023-03-22T01:05:49.652Z,44.57
2023-03-22T01:08:16.882Z,37.17
2023-03-22T01:10:45.074Z,43.93
2023-03-22T01:13:17.791Z,40.93
2023-03-22T01:15:45.024Z,40.03
2023-03-22T01:18:11.891Z,43.53
2023-03-22T01:20:39.147Z,40.37
2023-03-22T01:23:06.357Z,39.20
2023-03-22T01:25:33.891Z,38.37
2023-03-22T01:28:04.815Z,40.37
2023-03-22T01:30:31.705Z,39.80
2023-03-22T01:32:58.528Z,42.90
2023-03-22T01:35:25.371Z,43.57
2023-03-22T01:37:52.197Z,47.43
2023-03-22T01:40:19.014Z,49.67
2023-03-22T01:42:45.887Z,47.10
2023-03-22T01:45:16.702Z,45.90
2023-03-22T01:47:55.508Z,48.53
2023-03-22T01:50:24.468Z,49.47
2023-03-22T01:52:53.145Z,48.27
2023-03-22T01:55:22.832Z,49.70
2023-03-22T01:57:50.674Z,51.10
2023-03-22T02:00:19.147Z,50.93
2023-03-22T02:02:48.916Z,51.30
2023-03-22T02:05:17.333Z,54.43
2023-03-22T02:07:44.929Z,55.37
2023-03-22T02:10:18.527Z,53.80
2023-03-22T02:13:19.861Z,53.63
2023-03-22T02:16:12.853Z,58.07
2023-03-22T02:19:02.878Z,53.60
2023-03-22T02:21:43.354Z,58.77
2023-03-22T02:27:58.668Z,60.50
2023-03-22T02:30:53.128Z,59.27
2023-03-22T02:33:42.756Z,58.53
2023-03-22T02:36:14.950Z,63.87
2023-03-22T02:38:53.780Z,60.67
2023-03-22T02:41:42.591Z,60.30
2023-03-22T02:44:25.560Z,59.33
2023-03-22T02:47:08.096Z,59.70
2023-03-22T02:50:03.987Z,62.13
2023-03-22T02:52:52.573Z,61.37
2023-03-22T02:55:27.358Z,63.57
2023-03-22T02:57:54.105Z,57.73
2023-03-22T03:00:21.040Z,60.63
2023-03-22T03:02:53.028Z,63.93
2023-03-22T03:05:21.645Z,60.50
2023-03-22T03:07:53.545Z,61.67
2023-03-22T03:10:21.417Z,63.63
2023-03-22T03:12:48.343Z,64.27
2023-03-22T03:15:18.649Z,59.97
2023-03-22T03:18:21.412Z,61.97
2023-03-22T03:21:09.770Z,65.10
2023-03-22T03:23:36.688Z,63.63
2023-03-22T03:26:18.116Z,65.80
2023-03-22T03:29:11.859Z,67.00
2023-03-22T03:31:38.777Z,60.87
2023-03-22T03:34:08.975Z,61.50
2023-03-22T03:36:39.983Z,64.07
2023-03-22T03:39:12.121Z,67.73
2023-03-22T03:41:42.266Z,60.83
2023-03-22T03:44:09.935Z,67.77
2023-03-22T03:46:37.183Z,61.40
2023-03-22T03:49:05.267Z,70.53
2023-03-22T03:51:33.936Z,61.87
2023-03-22T03:54:00.749Z,60.83
2023-03-22T03:56:27.525Z,63.33
2023-03-22T03:58:54.280Z,62.80
2023-03-22T04:01:21.461Z,63.37
2023-03-22T04:03:50.813Z,60.57
2023-03-22T04:06:19.721Z,59.77
2023-03-22T04:08:46.637Z,59.50
2023-03-22T04:11:13.470Z,62.20
2023-03-22T04:13:42.645Z,58.50
2023-03-22T04:16:09.792Z,62.93
2023-03-22T04:18:36.739Z,60.63
2023-03-22T04:21:03.910Z,59.20
2023-03-22T04:23:33.119Z,59.63
2023-03-22T04:25:59.924Z,57.30
2023-03-22T04:28:26.921Z,59.13
2023-03-22T04:30:53.763Z,57.93
2023-03-22T04:33:23.071Z,60.73
2023-03-22T04:35:50.675Z,57.13
2023-03-22T04:38:18.331Z,60.50
2023-03-22T04:40:46.856Z,53.47
2023-03-22T04:43:15.700Z,54.53
2023-03-22T04:45:42.610Z,54.97
2023-03-22T04:48:10.640Z,59.40
2023-03-22T04:50:40.046Z,53.77
2023-03-22T04:53:08.162Z,57.00
2023-03-22T04:55:35.379Z,54.23
2023-03-22T04:58:02.196Z,54.10
2023-03-22T05:00:30.413Z,55.10
2023-03-22T05:03:02.102Z,53.67
2023-03-22T05:05:29.631Z,52.07
2023-03-22T05:07:56.460Z,54.20
2023-03-22T05:10:23.257Z,49.67
2023-03-22T05:12:50.271Z,50.10
2023-03-22T05:15:17.227Z,52.77
2023-03-22T05:17:44.015Z,52.30
2023-03-22T05:20:12.464Z,51.87
2023-03-22T05:22:41.055Z,51.80
2023-03-22T05:25:11.015Z,49.80
2023-03-22T05:27:39.037Z,48.37
2023-03-22T05:30:07.415Z,49.70
2023-03-22T05:32:37.519Z,49.77
2023-03-22T05:35:05.392Z,50.17
2023-03-22T05:37:32.249Z,49.40
2023-03-22T05:39:59.039Z,48.70
2023-03-22T05:42:26.140Z,48.57
2023-03-22T05:44:52.901Z,45.97
2023-03-22T05:47:20.672Z,45.13
2023-03-22T05:49:47.727Z,44.63
2023-03-22T05:52:14.527Z,41.30
2023-03-22T05:54:42.191Z,44.43
2023-03-22T05:57:09.313Z,42.43
2023-03-22T05:59:36.472Z,41.07
2023-03-22T06:02:03.444Z,42.07
2023-03-22T06:04:30.440Z,39.03
2023-03-22T06:06:57.401Z,38.00
2023-03-22T06:09:24.233Z,36.83
2023-03-22T06:11:51.360Z,34.80
2023-03-22T06:14:18.214Z,33.50
2023-03-22T06:16:45.158Z,34.13
2023-03-22T06:19:12.205Z,34.00
2023-03-22T06:21:38.991Z,33.17
2023-03-22T06:24:06.157Z,34.13
2023-03-22T06:26:32.973Z,33.20
2023-03-22T06:28:59.844Z,35.60
2023-03-22T06:31:26.655Z,31.20
2023-03-22T06:33:55.918Z,32.37
2023-03-22T06:36:22.928Z,28.40
2023-03-22T06:38:50.500Z,32.27
2023-03-22T06:41:17.782Z,29.77
2023-03-22T06:43:44.580Z,30.67
2023-03-22T06:46:11.568Z,33.77
2023-03-22T06:48:38.495Z,28.10
2023-03-22T06:51:05.811Z,26.50
2023-03-22T06:53:32.596Z,25.13
2023-03-22T06:55:59.481Z,25.83
2023-03-22T06:58:27.136Z,25.37
2023-03-22T07:00:56.190Z,26.60
2023-03-22T07:03:23.980Z,26.77
2023-03-22T07:05:51.130Z,27.30
2023-03-22T07:08:18.017Z,24.13
2023-03-22T07:10:50.773Z,22.80
2023-03-22T07:13:17.975Z,24.60
2023-03-22T07:15:44.879Z,20.93
2023-03-22T07:18:12.048Z,23.77
2023-03-22T07:20:41.519Z,22.03
2023-03-22T07:23:13.199Z,19.53
2023-03-22T07:25:40.472Z,21.23
2023-03-22T07:28:07.434Z,19.50
2023-03-22T07:30:37.738Z,19.87
2023-03-22T07:33:05.834Z,19.13
2023-03-22T07:38:24.180Z,17.50
2023-03-22T07:40:54.979Z,16.83
2023-03-22T07:43:22.443Z,16.90
2023-03-22T07:45:50.577Z,20.67
2023-03-22T07:48:18.565Z,20.23
2023-03-22T07:50:45.904Z,19.77
2023-03-22T07:53:13.304Z,19.60
2023-03-22T07:55:42.670Z,20.73
2023-03-22T07:58:09.860Z,18.57
2023-03-22T08:00:36.686Z,18.73
2023-03-22T08:03:03.542Z,20.67
2023-03-22T08:05:30.592Z,16.87
2023-03-22T08:07:57.492Z,18.17
2023-03-22T08:10:24.269Z,20.10
2023-03-22T08:12:51.323Z,19.70
2023-03-22T08:15:18.239Z,20.57
2023-03-22T08:17:45.357Z,19.07
2023-03-22T08:20:12.925Z,20.40
2023-03-22T08:22:39.746Z,19.00
2023-03-22T08:25:07.284Z,20.10
2023-03-22T08:27:35.043Z,22.27
2023-03-22T08:30:02.692Z,18.30
2023-03-22T08:32:29.519Z,19.50
2023-03-22T08:34:56.401Z,20.17
2023-03-22T08:37:23.191Z,18.50
2023-03-22T08:39:49.979Z,19.23
2023-03-22T08:42:16.794Z,20.73
2023-03-22T08:44:43.573Z,18.03
2023-03-22T08:47:10.403Z,21.27
2023-03-22T08:49:37.254Z,19.20
2023-03-22T08:52:07.362Z,19.30
2023-03-22T08:54:36.788Z,18.13
2023-03-22T08:57:03.974Z,17.77
2023-03-22T08:59:30.803Z,19.23
2023-03-22T09:01:57.817Z,19.20
2023-03-22T09:04:24.697Z,19.20
2023-03-22T09:06:51.524Z,17.80
2023-03-22T09:09:18.556Z,17.00
2023-03-22T09:11:45.502Z,17.70
2023-03-22T09:14:12.301Z,17.67
2023-03-22T09:16:39.161Z,16.57
2023-03-22T09:19:06.777Z,19.43
2023-03-22T09:21:33.708Z,19.80
2023-03-22T09:24:00.511Z,17.57
2023-03-22T09:26:27.812Z,18.03
2023-03-22T09:28:54.637Z,16.53
2023-03-22T09:31:21.425Z,18.50
2023-03-22T09:33:48.272Z,19.77
2023-03-22T09:36:15.887Z,17.33
2023-03-22T09:38:42.965Z,17.97
2023-03-22T09:41:38.041Z,17.80
2023-03-22T09:44:36.460Z,15.77
2023-03-22T09:47:08.316Z,17.97
2023-03-22T09:49:53.009Z,17.80
2023-03-22T09:52:20.772Z,17.50
2023-03-22T09:54:47.731Z,16.83
2023-03-22T09:57:24.409Z,17.63
2023-03-22T09:59:58.486Z,16.80
2023-03-22T10:02:53.739Z,19.87
2023-03-22T10:05:41.446Z,19.07
2023-03-22T10:08:24.498Z,21.43
2023-03-22T10:10:52.786Z,20.60
2023-03-22T10:13:38.754Z,18.50
2023-03-22T10:16:16.462Z,17.47
2023-03-22T10:18:48.418Z,17.67
2023-03-22T10:21:18.183Z,17.73
2023-03-22T10:23:54.286Z,17.23
2023-03-22T10:26:31.264Z,16.37
2023-03-22T10:29:04.037Z,16.50
2023-03-22T10:31:33.752Z,17.63
2023-03-22T10:34:16.615Z,16.63
2023-03-22T10:36:44.425Z,18.40
2023-03-22T10:39:28.994Z,16.80
2023-03-22T10:41:59.438Z,16.73
2023-03-22T10:44:29.991Z,14.37
2023-03-22T10:47:07.240Z,16.13
2023-03-22T10:49:39.892Z,18.07
2023-03-22T10:52:39.607Z,17.27
2023-03-22T10:55:15.306Z,15.30
2023-03-22T10:57:46.362Z,16.67
2023-03-22T11:00:17.438Z,15.73
2023-03-22T11:02:58.950Z,15.87
2023-03-22T11:05:29.095Z,16.93
2023-03-22T11:08:00.178Z,15.30
2023-03-22T11:10:33.528Z,16.73
2023-03-22T11:13:09.737Z,17.40
2023-03-22T11:15:42.020Z,15.37
2023-03-22T11:18:16.327Z,17.47
2023-03-22T11:20:55.753Z,12.80
2023-03-22T11:23:24.600Z,14.30
2023-03-22T11:25:55.379Z,15.60
2023-03-22T11:28:32.840Z,13.83
2023-03-22T11:31:08.435Z,12.37
2023-03-22T11:33:36.763Z,13.83
2023-03-22T11:36:18.318Z,13.87
2023-03-22T11:38:47.256Z,12.83
2023-03-22T11:41:25.376Z,12.97
2023-03-22T11:43:56.497Z,13.27
2023-03-22T11:46:24.451Z,14.00
2023-03-22T11:48:53.640Z,14.50
2023-03-22T11:51:33.525Z,13.07
2023-03-22T11:54:13.759Z,14.43
2023-03-22T11:56:43.525Z,14.80
2023-03-22T11:59:24.265Z,15.70
2023-03-22T12:02:27.164Z,13.33
2023-03-22T12:05:05.481Z,14.60
2023-03-22T12:07:38.327Z,14.93
2023-03-22T12:10:31.245Z,14.47
2023-03-22T12:13:07.117Z,12.97
2023-03-22T12:16:00.427Z,17.37
2023-03-22T12:18:33.594Z,13.67
2023-03-22T12:21:02.055Z,12.97
2023-03-22T12:23:31.453Z,14.47
2023-03-22T12:26:03.520Z,14.27
2023-03-22T12:28:44.727Z,14.80
2023-03-22T12:31:21.837Z,15.33
2023-03-22T12:33:57.866Z,14.03
2023-03-22T12:36:35.467Z,11.13
2023-03-22T12:39:06.701Z,13.63
2023-03-22T12:41:40.171Z,12.60
2023-03-22T12:44:28.258Z,12.73
2023-03-22T12:47:12.910Z,12.00
2023-03-22T12:50:02.451Z,12.60
2023-03-22T12:52:45.784Z,11.80
2023-03-22T12:55:28.803Z,11.60
2023-03-22T12:57:56.591Z,13.30
2023-03-22T13:00:42.719Z,12.60
2023-03-22T13:03:16.182Z,12.67
2023-03-22T13:05:45.508Z,12.30
2023-03-22T13:08:13.076Z,11.50
2023-03-22T13:10:48.518Z,10.93
2023-03-22T13:13:40.187Z,11.67
2023-03-22T13:16:10.745Z,10.83
2023-03-22T13:18:43.862Z,10.83
2023-03-22T13:21:19.745Z,13.67
2023-03-22T13:23:55.735Z,11.43
2023-03-22T13:26:39.756Z,10.27
2023-03-22T13:29:17.611Z,12.90
2023-03-22T13:31:58.428Z,11.70
2023-03-22T13:34:45.826Z,13.27
2023-03-22T13:37:35.874Z,13.80
2023-03-22T13:40:13.241Z,13.07
2023-03-22T13:42:41.544Z,11.70
2023-03-22T13:45:31.279Z,12.63
2023-03-22T13:48:42.743Z,12.27
2023-03-22T13:51:31.053Z,10.07
2023-03-22T13:54:11.527Z,11.10
2023-03-22T13:56:47.028Z,11.60
2023-03-22T13:59:28.017Z,12.87
2023-03-22T14:02:34.150Z,9.97
2023-03-22T14:05:20.733Z,14.10
2023-03-22T14:07:53.810Z,10.67
2023-03-22T14:10:26.186Z,10.37
2023-03-22T14:12:59.745Z,11.00
2023-03-22T14:15:34.366Z,11.90
2023-03-22T14:18:12.787Z,11.10
2023-03-22T14:20:40.641Z,11.80
